Time;durP1;ratioP1;P1;durP2;ratioP2;P2;SDS_P1;SDS_P2;PMS_P1;PMS_P2;Temp;Humidity;BMP_temperature;BMP_pressure;BME280_temperature;BME280_humidity;BME280_pressure;Samples;Min_cycle;Max_cycle;Signal;HPM_P1;HPM_P2
2023/12/10 00:00:33;;;;;;;17.17;11.50;;;;;;;;;;769477;180;916964;-63
2023/12/10 00:02:58;;;;;;;12.97;7.50;;;;;;;;;;773335;180;920489;-60
2023/12/10 00:05:24;;;;;;;19.50;10.53;;;;;;;;;;774378;181;920170;-63
2023/12/10 00:07:50;;;;;;;16.98;9.80;;;;;;;;;;781765;180;814403;-64
2023/12/10 00:10:16;;;;;;;15.40;9.27;;;;;;;;;;772618;180;920113;-61
2023/12/10 00:12:42;;;;;;;16.83;9.50;;;;;;;;;;777042;177;627069;-60
2023/12/10 00:15:08;;;;;;;17.57;9.27;;;;;;;;;;783263;181;619905;-63
2023/12/10 00:17:34;;;;;;;15.60;7.83;;;;;;;;;;776870;177;631998;-64
2023/12/10 00:20:00;;;;;;;13.07;7.73;;;;;;;;;;780459;177;637102;-62
2023/12/10 00:22:26;;;;;;;14.90;9.10;;;;;;;;;;767196;178;819239;-64
2023/12/10 00:24:52;;;;;;;18.80;8.97;;;;;;;;;;768104;181;917866;-63
2023/12/10 00:27:17;;;;;;;16.60;9.33;;;;;;;;;;770967;179;919305;-60
2023/12/10 00:29:43;;;;;;;14.30;8.33;;;;;;;;;;771519;180;918503;-64
2023/12/10 00:32:09;;;;;;;13.83;8.20;;;;;;;;;;776175;180;918267;-61
2023/12/10 00:34:35;;;;;;;14.20;7.80;;;;;;;;;;771771;177;919435;-60
2023/12/10 00:37:01;;;;;;;12.20;8.07;;;;;;;;;;763269;181;911522;-65
2023/12/10 00:39:27;;;;;;;12.77;8.23;;;;;;;;;;771323;180;899529;-63
2023/12/10 00:41:52;;;;;;;12.60;8.03;;;;;;;;;;773808;180;889751;-65
2023/12/10 00:44:18;;;;;;;11.60;7.50;;;;;;;;;;771799;181;921448;-64
2023/12/10 00:46:44;;;;;;;17.13;10.07;;;;;;;;;;777227;180;918701;-64
2023/12/10 00:49:10;;;;;;;14.13;8.00;;;;;;;;;;773101;180;919871;-64
2023/12/10 00:51:36;;;;;;;13.77;7.90;;;;;;;;;;773573;180;816910;-64
2023/12/10 00:54:04;;;;;;;13.00;7.67;;;;;;;;;;776679;178;961312;-64
2023/12/10 00:56:28;;;;;;;12.03;7.00;;;;;;;;;;776763;178;916790;-60
2023/12/10 00:58:54;;;;;;;14.53;8.23;;;;;;;;;;774891;177;919004;-63
2023/12/10 01:01:19;;;;;;;12.60;7.97;;;;;;;;;;772766;180;919030;-64
2023/12/10 01:03:45;;;;;;;12.10;6.27;;;;;;;;;;778743;181;823597;-61
2023/12/10 01:06:11;;;;;;;10.97;7.07;;;;;;;;;;767875;180;921217;-61
2023/12/10 01:08:37;;;;;;;10.50;6.40;;;;;;;;;;770663;180;931105;-64
2023/12/10 01:11:04;;;;;;;14.98;8.95;;;;;;;;;;777479;179;822112;-61
2023/12/10 01:13:29;;;;;;;13.87;8.63;;;;;;;;;;775843;179;919055;-63
2023/12/10 01:15:55;;;;;;;14.13;8.80;;;;;;;;;;773869;177;914788;-61
2023/12/10 01:18:21;;;;;;;11.90;7.40;;;;;;;;;;767960;181;918343;-63
2023/12/10 01:20:46;;;;;;;14.77;9.07;;;;;;;;;;769353;177;932327;-64
2023/12/10 01:23:14;;;;;;;15.07;8.00;;;;;;;;;;770541;178;919262;-64
2023/12/10 01:25:38;;;;;;;13.07;8.00;;;;;;;;;;774483;180;860049;-63
2023/12/10 01:28:04;;;;;;;12.13;8.80;;;;;;;;;;782762;178;767304;-64
2023/12/10 01:30:30;;;;;;;12.87;8.40;;;;;;;;;;772332;180;918792;-61
2023/12/10 01:32:56;;;;;;;15.83;7.83;;;;;;;;;;775670;180;863013;-61
2023/12/10 01:35:22;;;;;;;13.47;6.97;;;;;;;;;;775810;180;916376;-61
2023/12/10 01:37:47;;;;;;;14.53;8.23;;;;;;;;;;768379;177;815645;-62
2023/12/10 01:40:13;;;;;;;13.10;8.07;;;;;;;;;;763532;180;918049;-61
2023/12/10 01:42:39;;;;;;;15.63;8.10;;;;;;;;;;775518;180;918276;-63
2023/12/10 01:45:05;;;;;;;15.27;8.53;;;;;;;;;;772891;180;917189;-64
2023/12/10 01:47:31;;;;;;;10.93;7.00;;;;;;;;;;771160;178;919718;-64
2023/12/10 01:49:57;;;;;;;17.53;10.00;;;;;;;;;;770512;180;918847;-62
2023/12/10 01:52:23;;;;;;;13.43;8.30;;;;;;;;;;772430;181;746372;-63
2023/12/10 01:54:49;;;;;;;15.23;8.57;;;;;;;;;;772493;181;918852;-61
2023/12/10 01:57:15;;;;;;;16.57;9.00;;;;;;;;;;773102;180;817329;-64
2023/12/10 01:59:40;;;;;;;15.10;8.57;;;;;;;;;;776095;178;831652;-61
2023/12/10 02:02:06;;;;;;;17.10;9.40;;;;;;;;;;774484;180;918602;-61
2023/12/10 02:04:32;;;;;;;16.60;9.70;;;;;;;;;;772469;180;919032;-64
2023/12/10 02:06:58;;;;;;;15.20;9.90;;;;;;;;;;776184;180;843560;-64
2023/12/10 02:09:24;;;;;;;13.03;9.40;;;;;;;;;;768308;179;895657;-64
2023/12/10 02:11:50;;;;;;;12.60;8.47;;;;;;;;;;769960;180;920027;-61
2023/12/10 02:14:15;;;;;;;16.17;9.53;;;;;;;;;;779407;178;817376;-60
2023/12/10 02:16:41;;;;;;;15.13;8.17;;;;;;;;;;769295;177;917011;-61
2023/12/10 02:19:07;;;;;;;15.77;9.90;;;;;;;;;;772363;180;1124610;-64
2023/12/10 02:21:33;;;;;;;13.20;7.57;;;;;;;;;;773651;180;922667;-62
2023/12/10 02:24:00;;;;;;;15.80;9.30;;;;;;;;;;762819;182;922003;-60
2023/12/10 02:26:25;;;;;;;13.23;8.97;;;;;;;;;;762737;181;913973;-61
2023/12/10 02:28:52;;;;;;;15.97;10.23;;;;;;;;;;773523;180;918914;-63
2023/12/10 02:31:18;;;;;;;15.23;8.53;;;;;;;;;;779789;180;919599;-61
2023/12/10 02:33:44;;;;;;;15.70;8.13;;;;;;;;;;773524;177;918732;-63
2023/12/10 02:36:10;;;;;;;13.93;10.03;;;;;;;;;;774979;180;923025;-64
2023/12/10 02:38:35;;;;;;;16.33;8.50;;;;;;;;;;767144;180;920527;-61
2023/12/10 02:41:01;;;;;;;15.87;8.43;;;;;;;;;;767185;181;920264;-60
2023/12/10 02:43:27;;;;;;;15.52;9.45;;;;;;;;;;772011;180;918438;-61
2023/12/10 02:45:53;;;;;;;14.93;8.83;;;;;;;;;;770985;181;919581;-63
2023/12/10 02:48:21;;;;;;;12.75;6.85;;;;;;;;;;770886;180;918634;-63
2023/12/10 02:50:45;;;;;;;15.67;8.27;;;;;;;;;;772586;177;912135;-61
2023/12/10 02:53:10;;;;;;;14.70;10.03;;;;;;;;;;773129;180;814361;-64
2023/12/10 02:55:36;;;;;;;12.30;7.10;;;;;;;;;;775739;180;918618;-60
2023/12/10 02:58:02;;;;;;;13.43;8.20;;;;;;;;;;771546;177;920233;-64
2023/12/10 03:00:29;;;;;;;14.77;8.55;;;;;;;;;;757990;184;816901;-60
2023/12/10 03:02:54;;;;;;;13.93;8.87;;;;;;;;;;773123;178;911759;-61
2023/12/10 03:05:20;;;;;;;15.33;9.07;;;;;;;;;;774623;180;919756;-64
2023/12/10 03:07:46;;;;;;;13.03;8.23;;;;;;;;;;774935;179;904554;-64
2023/12/10 03:10:11;;;;;;;16.93;8.90;;;;;;;;;;777747;180;914439;-60
2023/12/10 03:12:37;;;;;;;16.87;8.73;;;;;;;;;;774326;180;915657;-60
2023/12/10 03:15:03;;;;;;;14.70;8.57;;;;;;;;;;774448;180;922894;-64
2023/12/10 03:17:29;;;;;;;16.07;9.10;;;;;;;;;;774172;177;881390;-63
2023/12/10 03:19:55;;;;;;;14.90;9.37;;;;;;;;;;776797;181;918797;-64
2023/12/10 03:22:21;;;;;;;15.17;8.30;;;;;;;;;;765846;179;919765;-64
2023/12/10 03:24:47;;;;;;;14.07;8.40;;;;;;;;;;767929;180;817145;-63
2023/12/10 03:27:13;;;;;;;13.43;7.53;;;;;;;;;;765385;181;816140;-60
2023/12/10 03:29:39;;;;;;;14.87;8.80;;;;;;;;;;769467;181;914772;-60
2023/12/10 03:32:05;;;;;;;14.53;8.17;;;;;;;;;;774074;178;921058;-60
2023/12/10 03:34:31;;;;;;;13.03;8.00;;;;;;;;;;776923;180;915144;-60
2023/12/10 03:36:57;;;;;;;12.30;7.80;;;;;;;;;;775720;179;921087;-61
2023/12/10 03:39:23;;;;;;;15.32;8.30;;;;;;;;;;775077;178;917485;-61
2023/12/10 03:41:49;;;;;;;13.83;8.90;;;;;;;;;;776519;179;1020720;-61
2023/12/10 03:44:15;;;;;;;17.20;8.73;;;;;;;;;;777897;177;868448;-60
2023/12/10 03:46:40;;;;;;;14.60;8.83;;;;;;;;;;774607;177;816791;-64
2023/12/10 03:49:06;;;;;;;12.93;8.17;;;;;;;;;;771827;180;1018978;-64
2023/12/10 03:51:32;;;;;;;16.50;9.20;;;;;;;;;;776089;180;918831;-60
2023/12/10 03:53:58;;;;;;;19.47;10.37;;;;;;;;;;770952;177;912833;-60
2023/12/10 03:56:24;;;;;;;20.47;10.57;;;;;;;;;;773957;178;1021859;-60
2023/12/10 03:58:50;;;;;;;21.17;10.93;;;;;;;;;;780624;180;820580;-64
2023/12/10 04:01:16;;;;;;;16.93;10.53;;;;;;;;;;772085;181;929786;-60
2023/12/10 04:03:41;;;;;;;18.27;9.77;;;;;;;;;;773317;181;915322;-60
2023/12/10 04:06:07;;;;;;;16.57;9.60;;;;;;;;;;768228;180;919650;-63
2023/12/10 04:08:33;;;;;;;19.63;10.90;;;;;;;;;;770647;177;861582;-64
2023/12/10 04:10:59;;;;;;;14.37;9.47;;;;;;;;;;774550;180;918723;-64
2023/12/10 04:13:25;;;;;;;21.10;11.53;;;;;;;;;;768915;180;918695;-60
2023/12/10 04:15:51;;;;;;;19.77;9.80;;;;;;;;;;771606;181;914893;-64
2023/12/10 04:18:17;;;;;;;18.83;10.53;;;;;;;;;;770097;178;911585;-60
2023/12/10 04:20:43;;;;;;;16.00;9.73;;;;;;;;;;761134;183;917616;-63
2023/12/10 04:23:08;;;;;;;15.33;8.67;;;;;;;;;;776395;181;917248;-63
2023/12/10 04:25:34;;;;;;;14.90;8.50;;;;;;;;;;773883;178;918644;-60
2023/12/10 04:28:00;;;;;;;12.45;8.20;;;;;;;;;;770527;177;1016921;-61
2023/12/10 04:30:26;;;;;;;13.10;7.07;;;;;;;;;;779865;180;921604;-64
2023/12/10 04:32:52;;;;;;;13.82;8.93;;;;;;;;;;767858;180;915556;-64
2023/12/10 04:35:18;;;;;;;15.60;8.20;;;;;;;;;;772660;179;918995;-61
2023/12/10 04:37:44;;;;;;;15.83;9.10;;;;;;;;;;773814;180;918509;-64
2023/12/10 04:40:10;;;;;;;14.07;8.80;;;;;;;;;;769839;180;814124;-61
2023/12/10 04:42:36;;;;;;;12.30;7.20;;;;;;;;;;763762;181;916683;-64
2023/12/10 04:45:01;;;;;;;12.30;7.20;;;;;;;;;;773749;180;917400;-63
2023/12/10 04:47:27;;;;;;;15.10;7.53;;;;;;;;;;780349;179;715910;-64
2023/12/10 04:49:54;;;;;;;15.03;9.80;;;;;;;;;;774402;179;946763;-63
2023/12/10 04:52:19;;;;;;;12.20;7.50;;;;;;;;;;770620;181;919356;-65
2023/12/10 04:54:45;;;;;;;14.00;7.90;;;;;;;;;;781599;178;918960;-61
2023/12/10 04:57:11;;;;;;;15.43;7.63;;;;;;;;;;765936;180;916968;-64
2023/12/10 04:59:36;;;;;;;15.83;10.40;;;;;;;;;;770342;180;918578;-61
2023/12/10 05:02:02;;;;;;;12.32;8.50;;;;;;;;;;779860;178;918137;-61
2023/12/10 05:04:28;;;;;;;10.50;7.07;;;;;;;;;;773875;180;921145;-64
2023/12/10 05:06:54;;;;;;;14.73;8.20;;;;;;;;;;773879;180;918594;-64
2023/12/10 05:09:20;;;;;;;14.50;8.50;;;;;;;;;;768738;177;906380;-64
2023/12/10 05:11:46;;;;;;;10.50;6.77;;;;;;;;;;764051;181;968340;-64
2023/12/10 05:14:12;;;;;;;14.50;9.10;;;;;;;;;;772543;177;921621;-64
2023/12/10 05:16:37;;;;;;;14.57;9.10;;;;;;;;;;769220;180;920668;-61
2023/12/10 05:19:03;;;;;;;17.42;10.40;;;;;;;;;;778803;180;817644;-63
2023/12/10 05:21:30;;;;;;;12.50;8.77;;;;;;;;;;768685;180;886389;-63
2023/12/10 05:23:55;;;;;;;12.52;8.93;;;;;;;;;;765300;179;915303;-61
2023/12/10 05:26:21;;;;;;;14.90;8.00;;;;;;;;;;770664;181;916695;-64
2023/12/10 05:28:48;;;;;;;16.10;8.53;;;;;;;;;;772931;180;915101;-61
2023/12/10 05:31:14;;;;;;;14.60;9.90;;;;;;;;;;774215;177;912957;-61
2023/12/10 05:33:40;;;;;;;14.23;7.37;;;;;;;;;;772090;180;920924;-60
2023/12/10 05:36:06;;;;;;;14.00;8.00;;;;;;;;;;777928;180;816619;-61
2023/12/10 05:38:32;;;;;;;13.90;8.53;;;;;;;;;;773070;180;935927;-64
2023/12/10 05:40:58;;;;;;;12.07;8.40;;;;;;;;;;773899;180;905037;-64
2023/12/10 05:43:24;;;;;;;19.90;8.70;;;;;;;;;;771969;180;917620;-61
2023/12/10 05:45:50;;;;;;;12.70;8.00;;;;;;;;;;770473;181;920504;-61
2023/12/10 05:48:15;;;;;;;18.33;8.23;;;;;;;;;;773861;179;913086;-64
2023/12/10 05:50:41;;;;;;;16.87;8.17;;;;;;;;;;776711;180;914312;-60
2023/12/10 05:53:07;;;;;;;16.60;8.50;;;;;;;;;;771491;177;915377;-60
2023/12/10 05:55:33;;;;;;;14.27;7.97;;;;;;;;;;769906;180;918988;-61
2023/12/10 05:57:59;;;;;;;15.00;8.73;;;;;;;;;;773383;180;916890;-61
2023/12/10 06:00:25;;;;;;;12.47;8.20;;;;;;;;;;772659;178;917613;-64
2023/12/10 06:02:51;;;;;;;17.63;9.13;;;;;;;;;;761896;179;918856;-65
2023/12/10 06:05:16;;;;;;;15.70;8.38;;;;;;;;;;768801;179;919230;-64
2023/12/10 06:07:42;;;;;;;13.10;7.67;;;;;;;;;;779627;178;907714;-65
2023/12/10 06:10:09;;;;;;;11.07;7.10;;;;;;;;;;771734;180;910438;-61
2023/12/10 06:12:34;;;;;;;13.63;7.33;;;;;;;;;;773502;180;850467;-65
2023/12/10 06:15:00;;;;;;;15.23;8.20;;;;;;;;;;777479;180;931792;-60
2023/12/10 06:17:26;;;;;;;10.17;7.20;;;;;;;;;;773307;180;922891;-63
2023/12/10 06:19:53;;;;;;;13.30;6.60;;;;;;;;;;776204;177;911624;-61
2023/12/10 06:22:18;;;;;;;9.35;6.25;;;;;;;;;;762529;182;1002141;-61
2023/12/10 06:24:44;;;;;;;14.00;7.77;;;;;;;;;;766486;181;940591;-64
2023/12/10 06:27:09;;;;;;;10.30;7.20;;;;;;;;;;777161;177;632832;-64
2023/12/10 06:29:35;;;;;;;14.33;8.60;;;;;;;;;;773832;180;820763;-61
2023/12/10 06:32:02;;;;;;;13.63;7.07;;;;;;;;;;779351;180;919086;-60
2023/12/10 06:34:27;;;;;;;13.13;7.87;;;;;;;;;;773694;181;917118;-62
2023/12/10 06:36:53;;;;;;;11.20;7.57;;;;;;;;;;775603;177;918574;-61
2023/12/10 06:39:19;;;;;;;16.07;8.67;;;;;;;;;;777734;178;919243;-61
2023/12/10 06:41:45;;;;;;;12.73;6.97;;;;;;;;;;772694;180;927202;-60
2023/12/10 06:44:14;;;;;;;12.40;7.22;;;;;;;;;;773099;180;918854;-61
2023/12/10 06:46:37;;;;;;;11.87;7.70;;;;;;;;;;770533;179;918189;-60
2023/12/10 06:49:02;;;;;;;10.43;6.82;;;;;;;;;;762923;181;919870;-64
2023/12/10 06:51:28;;;;;;;13.67;7.27;;;;;;;;;;774261;180;918694;-60
2023/12/10 06:53:54;;;;;;;11.87;7.53;;;;;;;;;;774200;180;921631;-60
2023/12/10 06:56:20;;;;;;;11.50;6.83;;;;;;;;;;769304;180;819147;-63
2023/12/10 06:58:45;;;;;;;11.93;7.23;;;;;;;;;;762185;181;919316;-64
2023/12/10 07:01:11;;;;;;;12.00;6.30;;;;;;;;;;771626;180;915137;-64
2023/12/10 07:03:37;;;;;;;11.43;5.90;;;;;;;;;;772066;180;888139;-60
2023/12/10 07:06:03;;;;;;;10.10;5.33;;;;;;;;;;768737;180;918396;-63
2023/12/10 07:08:29;;;;;;;9.27;5.93;;;;;;;;;;774012;178;786015;-63
2023/12/10 07:10:55;;;;;;;8.77;5.30;;;;;;;;;;780082;180;918108;-63
2023/12/10 07:13:21;;;;;;;11.18;6.45;;;;;;;;;;771472;180;930677;-60
2023/12/10 07:15:47;;;;;;;9.90;6.90;;;;;;;;;;774601;180;812661;-63
2023/12/10 07:18:13;;;;;;;10.60;7.47;;;;;;;;;;776371;180;816981;-60
2023/12/10 07:20:39;;;;;;;12.43;6.17;;;;;;;;;;770507;181;850256;-60
2023/12/10 07:23:05;;;;;;;10.87;6.80;;;;;;;;;;770526;178;914184;-63
2023/12/10 07:25:30;;;;;;;13.07;7.20;;;;;;;;;;771461;180;919110;-60
2023/12/10 07:27:56;;;;;;;13.40;7.43;;;;;;;;;;778645;180;1019028;-60
2023/12/10 07:30:22;;;;;;;10.13;6.17;;;;;;;;;;771737;180;922220;-60
2023/12/10 07:32:48;;;;;;;13.53;6.57;;;;;;;;;;772116;179;930922;-60
2023/12/10 07:35:14;;;;;;;10.60;7.18;;;;;;;;;;778836;180;918107;-63
2023/12/10 07:37:40;;;;;;;12.50;6.60;;;;;;;;;;772409;178;919564;-60
2023/12/10 07:40:06;;;;;;;11.23;6.93;;;;;;;;;;766575;180;913509;-60
2023/12/10 07:42:32;;;;;;;11.30;7.00;;;;;;;;;;770288;181;918697;-60
2023/12/10 07:44:58;;;;;;;12.30;6.03;;;;;;;;;;770544;177;922517;-62
2023/12/10 07:47:24;;;;;;;9.57;5.82;;;;;;;;;;764261;180;919922;-60
2023/12/10 07:49:49;;;;;;;8.90;6.13;;;;;;;;;;761183;182;918669;-60
2023/12/10 07:52:15;;;;;;;8.83;6.13;;;;;;;;;;767646;180;1024070;-60
2023/12/10 07:54:41;;;;;;;14.77;6.90;;;;;;;;;;772208;180;918848;-60
2023/12/10 07:57:07;;;;;;;11.95;6.90;;;;;;;;;;773259;180;920543;-63
2023/12/10 07:59:33;;;;;;;12.60;7.93;;;;;;;;;;778121;180;919066;-60
2023/12/10 08:01:59;;;;;;;14.17;7.83;;;;;;;;;;775531;180;717452;-63
2023/12/10 08:04:25;;;;;;;11.00;6.53;;;;;;;;;;775909;180;623697;-63
2023/12/10 08:06:50;;;;;;;8.60;6.50;;;;;;;;;;779391;177;613357;-60
2023/12/10 08:09:16;;;;;;;8.80;6.00;;;;;;;;;;777901;179;628829;-60
2023/12/10 08:11:42;;;;;;;10.77;6.37;;;;;;;;;;758475;183;978034;-60
2023/12/10 08:14:09;;;;;;;9.15;5.10;;;;;;;;;;770967;178;919598;-63
2023/12/10 08:16:34;;;;;;;9.83;6.67;;;;;;;;;;768821;181;820336;-60
2023/12/10 08:19:00;;;;;;;9.67;5.60;;;;;;;;;;760050;181;817582;-60
2023/12/10 08:21:26;;;;;;;10.23;6.00;;;;;;;;;;773003;177;914834;-61
2023/12/10 08:23:52;;;;;;;13.60;7.07;;;;;;;;;;782406;180;623050;-64
2023/12/10 08:26:18;;;;;;;11.00;6.97;;;;;;;;;;775898;179;631116;-62
2023/12/10 08:28:43;;;;;;;12.57;6.97;;;;;;;;;;776965;177;624652;-64
2023/12/10 08:31:09;;;;;;;9.50;6.20;;;;;;;;;;780285;178;627090;-64
2023/12/10 08:33:35;;;;;;;8.07;5.40;;;;;;;;;;778934;177;620615;-61
2023/12/10 08:36:01;;;;;;;10.65;6.47;;;;;;;;;;775105;180;919392;-61
2023/12/10 08:38:27;;;;;;;8.90;5.80;;;;;;;;;;773943;180;917273;-61
2023/12/10 08:40:53;;;;;;;8.90;5.20;;;;;;;;;;772106;180;907173;-64
2023/12/10 08:43:20;;;;;;;8.90;5.47;;;;;;;;;;768368;180;919321;-62
2023/12/10 08:45:45;;;;;;;8.90;4.87;;;;;;;;;;772808;180;913459;-62
2023/12/10 08:48:10;;;;;;;10.87;6.47;;;;;;;;;;775726;178;914416;-64
2023/12/10 08:50:36;;;;;;;9.77;6.50;;;;;;;;;;771164;180;1089386;-62
2023/12/10 08:53:02;;;;;;;11.30;6.73;;;;;;;;;;770446;180;918732;-61
2023/12/10 08:55:28;;;;;;;10.73;7.10;;;;;;;;;;779442;180;918371;-65
2023/12/10 08:57:54;;;;;;;10.70;6.40;;;;;;;;;;773130;180;818149;-64
2023/12/10 09:00:20;;;;;;;8.70;5.70;;;;;;;;;;774125;180;919032;-62
2023/12/10 09:02:45;;;;;;;6.15;4.40;;;;;;;;;;774995;179;817552;-63
2023/12/10 09:05:11;;;;;;;5.50;3.50;;;;;;;;;;771795;177;915350;-63
2023/12/10 09:07:37;;;;;;;8.17;4.30;;;;;;;;;;773856;180;916064;-65
2023/12/10 09:10:04;;;;;;;7.43;4.40;;;;;;;;;;777488;180;921103;-63
2023/12/10 09:12:30;;;;;;;7.10;4.30;;;;;;;;;;766655;182;919234;-62
2023/12/10 09:14:56;;;;;;;6.23;4.00;;;;;;;;;;767604;180;908872;-65
2023/12/10 09:17:21;;;;;;;6.53;5.00;;;;;;;;;;771720;178;918792;-63
2023/12/10 09:19:47;;;;;;;8.03;4.73;;;;;;;;;;773513;180;917365;-62
2023/12/10 09:22:13;;;;;;;5.73;3.70;;;;;;;;;;770921;178;918873;-65
2023/12/10 09:24:40;;;;;;;8.20;4.90;;;;;;;;;;775261;180;816208;-63
2023/12/10 09:27:05;;;;;;;6.37;4.50;;;;;;;;;;779669;180;844445;-63
2023/12/10 09:29:38;;;;;;;7.00;4.47;;;;;;;;;;771060;180;918891;-65
2023/12/10 09:31:56;;;;;;;9.10;5.10;;;;;;;;;;770964;180;843872;-64
2023/12/10 09:34:22;;;;;;;6.50;4.60;;;;;;;;;;779514;179;916578;-64
2023/12/10 09:36:48;;;;;;;10.57;5.93;;;;;;;;;;772057;180;918610;-62
2023/12/10 09:39:14;;;;;;;11.37;6.17;;;;;;;;;;770364;177;918801;-63
2023/12/10 09:41:40;;;;;;;11.30;5.40;;;;;;;;;;773767;177;919866;-60
2023/12/10 09:44:06;;;;;;;5.90;3.83;;;;;;;;;;779566;180;815938;-60
2023/12/10 09:46:32;;;;;;;6.20;4.73;;;;;;;;;;774126;180;886266;-60
2023/12/10 09:48:58;;;;;;;6.93;4.10;;;;;;;;;;772794;178;921143;-60
2023/12/10 09:51:23;;;;;;;6.67;4.40;;;;;;;;;;778541;181;815885;-60
2023/12/10 09:53:49;;;;;;;7.40;5.00;;;;;;;;;;773488;180;818625;-61
2023/12/10 09:56:15;;;;;;;7.25;4.97;;;;;;;;;;773702;180;891407;-60
2023/12/10 09:58:41;;;;;;;6.70;4.20;;;;;;;;;;775566;181;921089;-62
2023/12/10 10:01:08;;;;;;;6.17;4.30;;;;;;;;;;774489;180;919754;-59
2023/12/10 10:03:35;;;;;;;9.40;5.30;;;;;;;;;;769132;180;918722;-61
2023/12/10 10:06:00;;;;;;;8.17;5.20;;;;;;;;;;774334;180;923726;-61
2023/12/10 10:08:26;;;;;;;12.23;6.50;;;;;;;;;;778552;180;874939;-62
2023/12/10 10:10:52;;;;;;;12.07;6.80;;;;;;;;;;771272;180;918846;-59
2023/12/10 10:13:18;;;;;;;9.98;5.90;;;;;;;;;;775466;180;920116;-62
2023/12/10 10:15:44;;;;;;;9.10;5.17;;;;;;;;;;778540;180;919149;-60
2023/12/10 10:18:10;;;;;;;15.63;6.13;;;;;;;;;;772505;180;918355;-63
2023/12/10 10:20:36;;;;;;;10.70;5.80;;;;;;;;;;773073;180;926446;-62
2023/12/10 10:23:01;;;;;;;7.80;5.67;;;;;;;;;;778923;180;820096;-60
2023/12/10 10:25:27;;;;;;;7.40;4.83;;;;;;;;;;772845;180;919282;-62
2023/12/10 10:27:53;;;;;;;7.90;4.93;;;;;;;;;;773808;180;919551;-60
2023/12/10 10:30:19;;;;;;;9.80;6.00;;;;;;;;;;771847;180;914507;-60
2023/12/10 10:32:45;;;;;;;10.87;6.57;;;;;;;;;;778510;180;910843;-64
2023/12/10 10:35:12;;;;;;;10.47;5.77;;;;;;;;;;774132;178;909654;-63
2023/12/10 10:37:37;;;;;;;9.73;5.30;;;;;;;;;;771208;177;920163;-64
2023/12/10 10:40:03;;;;;;;7.57;4.57;;;;;;;;;;769350;181;918313;-65
2023/12/10 10:42:29;;;;;;;9.10;5.70;;;;;;;;;;770907;180;919433;-61
2023/12/10 10:44:55;;;;;;;10.50;5.90;;;;;;;;;;766649;177;919790;-65
2023/12/10 10:47:21;;;;;;;9.73;5.53;;;;;;;;;;770939;181;818976;-64
2023/12/10 10:49:47;;;;;;;8.90;6.27;;;;;;;;;;773964;180;818252;-64
2023/12/10 10:52:13;;;;;;;10.83;7.03;;;;;;;;;;773407;180;920165;-63
2023/12/10 10:54:39;;;;;;;8.60;6.03;;;;;;;;;;778380;180;918970;-65
2023/12/10 10:57:05;;;;;;;8.30;4.23;;;;;;;;;;775376;178;813953;-64
2023/12/10 10:59:31;;;;;;;9.10;6.50;;;;;;;;;;773498;180;905464;-62
2023/12/10 11:01:57;;;;;;;9.27;5.23;;;;;;;;;;771060;180;919824;-64
2023/12/10 11:04:23;;;;;;;10.63;5.33;;;;;;;;;;775818;180;1225613;-62
2023/12/10 11:06:50;;;;;;;10.10;5.63;;;;;;;;;;770366;180;913999;-65
2023/12/10 11:09:15;;;;;;;9.30;5.10;;;;;;;;;;773803;179;916311;-65
2023/12/10 11:11:41;;;;;;;8.53;5.97;;;;;;;;;;778941;180;918790;-64
2023/12/10 11:14:23;;;;;;;8.07;5.07;;;;;;;;;;771817;180;901192;-64
2023/12/10 11:16:50;;;;;;;6.10;4.20;;;;;;;;;;771374;180;919698;-66
2023/12/10 11:19:18;;;;;;;7.20;5.10;;;;;;;;;;774663;179;630761;-64
2023/12/10 11:21:42;;;;;;;8.70;4.83;;;;;;;;;;769293;181;631057;-65
2023/12/10 11:24:08;;;;;;;7.67;4.80;;;;;;;;;;766864;181;916007;-66
2023/12/10 11:26:33;;;;;;;11.67;7.50;;;;;;;;;;773288;180;918602;-67
2023/12/10 11:28:59;;;;;;;12.27;6.40;;;;;;;;;;771465;180;945832;-66
2023/12/10 11:31:25;;;;;;;10.13;5.80;;;;;;;;;;760365;181;911362;-68
2023/12/10 11:33:51;;;;;;;9.03;5.73;;;;;;;;;;766285;181;919599;-69
2023/12/10 11:36:17;;;;;;;7.33;5.00;;;;;;;;;;774070;178;912748;-67
2023/12/10 11:38:45;;;;;;;9.67;7.20;;;;;;;;;;779466;180;909896;-67
2023/12/10 11:41:10;;;;;;;10.50;6.53;;;;;;;;;;773768;179;816282;-65
2023/12/10 11:43:37;;;;;;;9.70;5.47;;;;;;;;;;773187;180;917832;-65
2023/12/10 11:46:02;;;;;;;7.43;4.67;;;;;;;;;;776082;180;910368;-66
2023/12/10 11:48:28;;;;;;;7.73;5.83;;;;;;;;;;769799;177;915547;-64
2023/12/10 11:50:54;;;;;;;9.27;5.13;;;;;;;;;;770259;178;920951;-65
2023/12/10 11:53:20;;;;;;;8.57;5.67;;;;;;;;;;772194;181;925784;-67
2023/12/10 11:55:48;;;;;;;9.30;6.30;;;;;;;;;;773722;180;917948;-67
2023/12/10 11:58:11;;;;;;;9.23;6.57;;;;;;;;;;776687;176;637952;-65
2023/12/10 12:00:37;;;;;;;10.57;5.37;;;;;;;;;;776603;180;935925;-67
2023/12/10 12:03:05;;;;;;;9.60;5.17;;;;;;;;;;781180;178;843644;-65
2023/12/10 12:05:29;;;;;;;14.60;6.60;;;;;;;;;;770545;178;716652;-64
2023/12/10 12:07:55;;;;;;;10.07;5.60;;;;;;;;;;771148;180;918781;-65
2023/12/10 12:10:21;;;;;;;11.30;5.70;;;;;;;;;;779182;178;917194;-64
2023/12/10 12:12:47;;;;;;;13.57;6.40;;;;;;;;;;775038;178;869739;-64
2023/12/10 12:15:13;;;;;;;10.15;5.50;;;;;;;;;;775757;178;816351;-64
2023/12/10 12:17:40;;;;;;;10.27;6.43;;;;;;;;;;777538;181;918543;-66
2023/12/10 12:20:12;;;;;;;12.40;5.40;;;;;;;;;;770621;180;918897;-67
2023/12/10 12:22:38;;;;;;;7.60;4.87;;;;;;;;;;763794;180;925130;-66
2023/12/10 12:25:05;;;;;;;8.00;5.67;;;;;;;;;;773857;178;918223;-67
2023/12/10 12:27:30;;;;;;;11.07;6.23;;;;;;;;;;776888;180;917722;-67
2023/12/10 12:29:56;;;;;;;11.47;5.53;;;;;;;;;;773002;180;818323;-65
2023/12/10 12:32:21;;;;;;;11.70;6.70;;;;;;;;;;774032;178;872705;-65
2023/12/10 12:34:47;;;;;;;9.02;5.47;;;;;;;;;;773834;178;919961;-64
2023/12/10 12:37:13;;;;;;;11.10;6.40;;;;;;;;;;768152;181;796626;-64
2023/12/10 12:39:39;;;;;;;8.60;6.43;;;;;;;;;;773375;177;918373;-63
2023/12/10 12:42:05;;;;;;;15.50;8.70;;;;;;;;;;773088;180;919459;-66
2023/12/10 12:44:31;;;;;;;18.30;10.20;;;;;;;;;;771656;181;918814;-63
2023/12/10 12:46:57;;;;;;;20.77;9.77;;;;;;;;;;769018;180;919750;-66
2023/12/10 12:49:23;;;;;;;21.07;11.40;;;;;;;;;;771551;180;919139;-65
2023/12/10 12:51:48;;;;;;;21.60;10.30;;;;;;;;;;780235;177;870319;-65
2023/12/10 12:54:14;;;;;;;18.63;9.73;;;;;;;;;;773550;179;917878;-64
2023/12/10 12:56:44;;;;;;;18.53;11.53;;;;;;;;;;769979;180;905119;-66
2023/12/10 12:59:06;;;;;;;17.17;9.40;;;;;;;;;;775896;179;919508;-63
2023/12/10 13:01:32;;;;;;;19.10;8.50;;;;;;;;;;771353;177;918964;-64
2023/12/10 13:03:58;;;;;;;18.93;10.07;;;;;;;;;;763275;178;942752;-66
2023/12/10 13:06:23;;;;;;;15.60;9.97;;;;;;;;;;765337;181;882523;-66
2023/12/10 13:08:51;;;;;;;17.52;10.55;;;;;;;;;;776265;179;919221;-63
2023/12/10 13:11:16;;;;;;;15.90;9.30;;;;;;;;;;773255;178;916681;-63
2023/12/10 13:13:42;;;;;;;15.07;9.60;;;;;;;;;;772322;178;923395;-66
2023/12/10 13:16:08;;;;;;;15.83;8.77;;;;;;;;;;778756;178;802144;-67
2023/12/10 13:18:34;;;;;;;16.73;9.35;;;;;;;;;;774022;178;916042;-64
2023/12/10 13:21:00;;;;;;;16.03;9.20;;;;;;;;;;767090;177;934240;-67
2023/12/10 13:23:25;;;;;;;17.53;9.57;;;;;;;;;;771912;178;909976;-63
2023/12/10 13:25:51;;;;;;;15.00;9.03;;;;;;;;;;771989;180;921228;-63
2023/12/10 13:28:17;;;;;;;12.47;7.27;;;;;;;;;;770989;180;913030;-66
2023/12/10 13:30:43;;;;;;;13.07;7.30;;;;;;;;;;772658;180;919909;-64
2023/12/10 13:33:09;;;;;;;12.50;8.67;;;;;;;;;;771509;180;918747;-67
2023/12/10 13:35:35;;;;;;;18.00;7.85;;;;;;;;;;761961;181;917974;-67
2023/12/10 13:38:01;;;;;;;14.40;9.47;;;;;;;;;;772721;180;836511;-63
2023/12/10 13:40:26;;;;;;;13.90;8.70;;;;;;;;;;774549;180;816655;-67
2023/12/10 13:42:52;;;;;;;17.50;10.03;;;;;;;;;;758028;181;917855;-63
2023/12/10 13:45:18;;;;;;;12.13;9.00;;;;;;;;;;773662;178;911513;-66
2023/12/10 13:47:44;;;;;;;13.20;8.70;;;;;;;;;;778254;177;872158;-63
2023/12/10 13:50:10;;;;;;;14.97;8.60;;;;;;;;;;772789;180;888363;-67
2023/12/10 13:52:36;;;;;;;17.90;8.60;;;;;;;;;;765690;179;962128;-67
2023/12/10 13:55:02;;;;;;;17.23;10.80;;;;;;;;;;772778;178;913653;-63
2023/12/10 13:57:32;;;;;;;17.63;10.20;;;;;;;;;;772723;181;810333;-67
2023/12/10 13:59:53;;;;;;;13.73;9.17;;;;;;;;;;770954;180;947209;-63
2023/12/10 14:02:19;;;;;;;18.30;9.50;;;;;;;;;;772966;180;914282;-63
2023/12/10 14:04:45;;;;;;;14.50;9.20;;;;;;;;;;776929;180;809559;-67
2023/12/10 14:07:11;;;;;;;16.07;11.20;;;;;;;;;;772047;180;817845;-63
2023/12/10 14:09:37;;;;;;;22.80;11.77;;;;;;;;;;772528;180;813350;-65